Time;durP1;ratioP1;P1;durP2;ratioP2;P2;SDS_P1;SDS_P2;PMS_P1;PMS_P2;Temp;Humidity;BMP_temperature;BMP_pressure;BME280_temperature;BME280_humidity;BME280_pressure;Samples;Min_cycle;Max_cycle;Signal;HPM_P1;HPM_P2
2023/07/31 00:00:41;;;;;;;;;;;;;;;22.27;43.15;96156.41;6125335;29;19930;-71
2023/07/31 00:03:47;;;;;;;;;;;;;;;22.25;43.57;96157.63;6109236;29;19927;-71
2023/07/31 00:06:51;;;;;;;;;;;;;;;22.06;44.09;96164.41;6126290;29;19935;-71
2023/07/31 00:09:56;;;;;;;;;;;;;;;21.89;44.19;96153.91;6125602;29;19923;-70
2023/07/31 00:13:02;;;;;;;;;;;;;;;21.51;45.25;96146.03;6126195;29;19927;-71
2023/07/31 00:16:03;;;;;;;;;;;;;;;21.32;45.50;96145.72;6125327;29;19927;-71
2023/07/31 00:19:04;;;;;;;;;;;;;;;21.30;46.59;96143.22;6125218;29;19934;-72
2023/07/31 00:22:09;;;;;;;;;;;;;;;21.33;46.19;96132.13;6126092;29;20393;-70
2023/07/31 00:25:10;;;;;;;;;;;;;;;21.35;46.09;96130.13;6125001;29;19937;-70
2023/07/31 00:28:11;;;;;;;;;;;;;;;21.42;46.21;96139.09;6125836;29;19975;-71
2023/07/31 00:31:17;;;;;;;;;;;;;;;21.43;46.38;96139.91;6125981;29;19927;-71
2023/07/31 00:34:18;;;;;;;;;;;;;;;21.45;47.09;96140.56;6107866;29;19933;-71
2023/07/31 00:37:19;;;;;;;;;;;;;;;21.51;46.95;96143.34;6125596;29;19926;-71
2023/07/31 00:40:20;;;;;;;;;;;;;;;21.55;46.37;96141.13;6125372;29;19938;-71
2023/07/31 00:43:22;;;;;;;;;;;;;;;21.58;45.99;96137.25;6124818;29;19931;-71
2023/07/31 00:46:26;;;;;;;;;;;;;;;21.60;45.76;96137.88;6125283;29;19926;-70
2023/07/31 00:49:29;;;;;;;;;;;;;;;21.52;46.20;96131.63;6108581;29;19937;-72
2023/07/31 00:52:30;;;;;;;;;;;;;;;21.46;46.52;96132.38;6124468;29;19922;-71
2023/07/31 00:55:33;;;;;;;;;;;;;;;21.40;46.56;96135.78;6125159;29;19926;-71
2023/07/31 00:58:37;;;;;;;;;;;;;;;21.35;47.39;96146.19;6125228;29;19927;-71
2023/07/31 01:04:57;;;;;;;;;;;;;;;21.23;47.56;96136.91;6125199;29;19927;-71
2023/07/31 01:08:04;;;;;;;;;;;;;;;21.19;48.08;96136.47;6108050;29;19926;-72
2023/07/31 01:11:28;;;;;;;;;;;;;;;21.16;48.50;96130.66;6124841;29;19927;-71
2023/07/31 01:14:30;;;;;;;;;;;;;;;21.13;48.97;96137.22;6108848;29;19931;-71
2023/07/31 01:17:31;;;;;;;;;;;;;;;21.10;49.41;96132.22;6124588;29;20097;-71
2023/07/31 01:20:33;;;;;;;;;;;;;;;21.11;49.83;96133.88;6124008;29;19926;-72
2023/07/31 01:23:54;;;;;;;;;;;;;;;21.08;49.31;96129.72;6125011;29;19927;-71
2023/07/31 01:27:12;;;;;;;;;;;;;;;21.03;49.76;96142.84;6108273;29;19926;-71
2023/07/31 01:30:17;;;;;;;;;;;;;;;21.06;50.06;96142.47;6107322;29;20282;-70
2023/07/31 01:33:17;;;;;;;;;;;;;;;21.11;50.33;96147.25;6107565;29;19927;-70
2023/07/31 01:36:22;;;;;;;;;;;;;;;21.16;49.99;96152.06;6107527;29;19927;-71
2023/07/31 01:39:25;;;;;;;;;;;;;;;21.22;50.40;96146.81;6123727;29;19934;-71
2023/07/31 01:42:26;;;;;;;;;;;;;;;21.29;50.58;96150.41;6123594;29;19927;-71
2023/07/31 01:45:27;;;;;;;;;;;;;;;21.32;50.60;96141.19;6124305;29;19934;-71
2023/07/31 01:48:35;;;;;;;;;;;;;;;21.40;50.89;96143.81;6107529;29;20010;-71
2023/07/31 01:51:36;;;;;;;;;;;;;;;21.48;50.47;96145.53;6106304;29;19933;-70
2023/07/31 01:54:40;;;;;;;;;;;;;;;21.62;49.75;96151.91;6124137;29;20305;-70
2023/07/31 01:57:41;;;;;;;;;;;;;;;21.74;49.76;96155.78;6124123;29;19931;-71
2023/07/31 02:00:42;;;;;;;;;;;;;;;21.87;49.41;96155.09;6123823;29;19929;-70
2023/07/31 02:03:47;;;;;;;;;;;;;;;22.01;50.11;96150.75;6124498;29;20014;-71
2023/07/31 02:06:48;;;;;;;;;;;;;;;22.20;48.81;96150.16;6123866;29;20066;-71
2023/07/31 02:09:55;;;;;;;;;;;;;;;22.33;48.65;96144.09;6124425;29;19971;-71
2023/07/31 02:12:58;;;;;;;;;;;;;;;22.40;48.37;96143.16;6107049;29;19923;-71
2023/07/31 02:16:02;;;;;;;;;;;;;;;22.44;48.25;96157.00;6107530;29;19927;-70
2023/07/31 02:19:05;;;;;;;;;;;;;;;22.48;48.14;96152.09;6124007;29;19926;-71
2023/07/31 02:22:09;;;;;;;;;;;;;;;22.53;47.76;96149.66;6123369;29;20392;-71
2023/07/31 02:25:16;;;;;;;;;;;;;;;22.59;47.36;96146.19;6124139;29;19927;-71
2023/07/31 02:28:19;;;;;;;;;;;;;;;22.62;47.22;96146.66;6124084;29;19931;-72
2023/07/31 02:31:24;;;;;;;;;;;;;;;22.70;46.86;96144.84;6124054;29;19927;-72
2023/07/31 02:34:28;;;;;;;;;;;;;;;22.72;46.58;96149.00;6123272;29;19933;-72
2023/07/31 02:37:31;;;;;;;;;;;;;;;22.71;46.34;96144.69;6107406;29;19926;-72
2023/07/31 02:40:34;;;;;;;;;;;;;;;22.64;46.49;96131.19;6124268;29;20443;-72
2023/07/31 02:43:38;;;;;;;;;;;;;;;22.88;45.98;96131.00;6128103;29;19927;-71
2023/07/31 02:46:44;;;;;;;;;;;;;;;22.75;45.86;96121.81;6127932;29;19927;-71
2023/07/31 02:49:50;;;;;;;;;;;;;;;22.72;45.80;96132.09;6127870;29;20389;-71
2023/07/31 02:52:53;;;;;;;;;;;;;;;22.76;45.60;96128.84;6127445;29;19934;-71
2023/07/31 02:55:56;;;;;;;;;;;;;;;22.81;45.28;96126.38;6127863;29;19926;-71
2023/07/31 02:59:02;;;;;;;;;;;;;;;22.86;45.39;96121.28;6095542;29;19927;-71
2023/07/31 03:02:08;;;;;;;;;;;;;;;22.92;45.29;96124.22;6127552;29;19926;-71
2023/07/31 03:05:12;;;;;;;;;;;;;;;23.04;45.18;96125.34;6110446;29;19934;-71
2023/07/31 03:08:14;;;;;;;;;;;;;;;23.05;44.94;96127.03;6110304;29;19927;-72
2023/07/31 03:11:16;;;;;;;;;;;;;;;23.11;45.13;96136.16;6126867;29;20074;-72
2023/07/31 03:14:21;;;;;;;;;;;;;;;23.19;44.41;96131.47;6127451;29;19930;-72
2023/07/31 03:17:25;;;;;;;;;;;;;;;23.28;44.50;96138.31;6109963;29;19974;-71
2023/07/31 03:20:26;;;;;;;;;;;;;;;23.41;44.34;96142.09;6126551;29;19926;-71
2023/07/31 03:23:29;;;;;;;;;;;;;;;23.54;44.09;96137.63;6109236;29;19927;-70
2023/07/31 03:26:33;;;;;;;;;;;;;;;23.69;43.77;96145.59;6126933;29;19930;-71
2023/07/31 03:29:38;;;;;;;;;;;;;;;23.81;43.72;96147.72;6126960;29;19927;-72
2023/07/31 03:32:39;;;;;;;;;;;;;;;23.93;43.53;96143.44;6126490;29;19927;-71
2023/07/31 03:35:44;;;;;;;;;;;;;;;24.09;43.16;96151.16;6126827;29;19930;-71
2023/07/31 03:38:50;;;;;;;;;;;;;;;24.17;42.75;96153.63;6126814;29;19927;-71
2023/07/31 03:41:53;;;;;;;;;;;;;;;24.24;43.05;96153.66;6126896;29;19926;-71
2023/07/31 03:44:59;;;;;;;;;;;;;;;24.37;43.12;96158.22;6126546;29;20018;-71
2023/07/31 03:48:03;;;;;;;;;;;;;;;24.55;42.64;96161.22;6126405;29;20301;-72
2023/07/31 03:51:04;;;;;;;;;;;;;;;24.73;41.96;96165.16;6109050;29;19926;-71
2023/07/31 03:54:07;;;;;;;;;;;;;;;24.81;41.91;96163.09;6126045;29;20312;-72
2023/07/31 03:57:11;;;;;;;;;;;;;;;24.87;41.98;96164.97;6126479;29;19937;-71
2023/07/31 04:00:12;;;;;;;;;;;;;;;24.91;42.35;96160.00;6109101;29;20315;-72
2023/07/31 04:03:16;;;;;;;;;;;;;;;25.16;41.60;96151.31;6126281;29;19933;-72
2023/07/31 04:06:19;;;;;;;;;;;;;;;25.66;41.06;96159.72;6125671;29;19931;-73
2023/07/31 04:09:24;;;;;;;;;;;;;;;26.15;40.11;96169.09;6126247;29;19923;-71
2023/07/31 04:12:25;;;;;;;;;;;;;;;26.54;39.71;96159.19;6125822;29;20025;-72
2023/07/31 04:15:26;;;;;;;;;;;;;;;26.66;39.45;96162.81;6125921;29;19949;-72
2023/07/31 04:18:27;;;;;;;;;;;;;;;26.82;39.27;96156.91;6125895;29;19927;-71
2023/07/31 04:21:28;;;;;;;;;;;;;;;26.92;39.04;96163.69;6125381;29;20308;-72
2023/07/31 04:24:32;;;;;;;;;;;;;;;27.15;38.91;96160.38;6125785;29;19927;-72
2023/07/31 04:27:35;;;;;;;;;;;;;;;27.52;38.33;96159.44;6125651;29;19973;-71
2023/07/31 04:30:37;;;;;;;;;;;;;;;27.87;37.92;96163.47;6125072;29;19971;-72
2023/07/31 04:33:41;;;;;;;;;;;;;;;28.15;37.26;96155.63;6125414;29;20099;-72
2023/07/31 04:36:47;;;;;;;;;;;;;;;28.53;36.46;96153.69;6125147;29;19926;-72
2023/07/31 04:39:48;;;;;;;;;;;;;;;28.85;36.19;96156.97;6124624;29;19926;-72
2023/07/31 04:42:49;;;;;;;;;;;;;;;29.26;35.60;96163.41;6125380;29;19958;-72
2023/07/31 04:45:51;;;;;;;;;;;;;;;31.08;33.63;96166.59;6125084;29;20397;-72
2023/07/31 04:48:52;;;;;;;;;;;;;;;34.48;29.96;96156.94;6125162;29;20038;-73
2023/07/31 04:51:55;;;;;;;;;;;;;;;37.86;26.63;96178.59;6125360;29;20278;-73
2023/07/31 04:54:56;;;;;;;;;;;;;;;41.21;24.35;96185.38;6107399;29;19926;-73
2023/07/31 04:58:00;;;;;;;;;;;;;;;42.66;23.84;96179.28;6124325;29;20407;-72
2023/07/31 05:01:03;;;;;;;;;;;;;;;43.94;22.65;96180.72;6124307;29;19922;-73
2023/07/31 05:04:08;;;;;;;;;;;;;;;46.05;21.27;96191.63;6124493;29;19950;-72
2023/07/31 05:07:09;;;;;;;;;;;;;;;47.96;19.62;96187.91;6124767;29;19927;-73
2023/07/31 05:10:12;;;;;;;;;;;;;;;48.98;18.81;96190.81;6124237;29;19923;-73
2023/07/31 05:13:15;;;;;;;;;;;;;;;48.10;18.88;96185.47;6124885;29;20304;-73
2023/07/31 05:16:17;;;;;;;;;;;;;;;47.80;20.10;96189.88;6106784;29;19974;-72
2023/07/31 05:19:19;;;;;;;;;;;;;;;49.14;17.43;96179.56;6124118;29;19926;-72
2023/07/31 05:22:22;;;;;;;;;;;;;;;50.87;15.16;96180.69;6123830;29;20017;-72
2023/07/31 05:25:25;;;;;;;;;;;;;;;50.43;13.77;96189.63;6124326;29;19957;-73
2023/07/31 05:28:29;;;;;;;;;;;;;;;48.10;16.40;96168.75;6124694;29;20025;-73
2023/07/31 05:31:33;;;;;;;;;;;;;;;45.38;15.54;96168.63;6124293;29;20031;-72
2023/07/31 05:34:36;;;;;;;;;;;;;;;42.89;16.63;96165.34;6107607;29;19930;-73
2023/07/31 05:37:40;;;;;;;;;;;;;;;40.45;18.75;96158.34;6124598;29;19949;-73
2023/07/31 05:40:44;;;;;;;;;;;;;;;39.96;18.76;96157.94;6124535;29;20472;-74
2023/07/31 05:43:48;;;;;;;;;;;;;;;42.39;16.96;96172.91;6124302;29;20021;-74
2023/07/31 05:46:51;;;;;;;;;;;;;;;42.70;16.93;96169.22;6106920;29;20423;-74
2023/07/31 05:49:55;;;;;;;;;;;;;;;41.22;17.79;96164.91;6124214;29;19966;-75
2023/07/31 05:52:59;;;;;;;;;;;;;;;42.07;17.09;96162.19;6124334;29;19926;-74
2023/07/31 05:56:03;;;;;;;;;;;;;;;42.60;16.48;96164.00;6124192;29;20312;-73
2023/07/31 05:59:06;;;;;;;;;;;;;;;41.68;17.30;96149.97;6124359;29;20389;-74
2023/07/31 06:02:09;;;;;;;;;;;;;;;41.27;17.93;96153.75;6123874;29;19959;-73
2023/07/31 06:05:13;;;;;;;;;;;;;;;40.66;18.54;96149.69;6123915;29;20041;-73
2023/07/31 06:08:15;;;;;;;;;;;;;;;42.47;16.74;96153.91;6124113;29;20401;-74
2023/07/31 06:11:20;;;;;;;;;;;;;;;43.84;15.76;96161.69;6124048;29;19923;-73
2023/07/31 06:14:23;;;;;;;;;;;;;;;44.10;15.01;96159.63;6124008;29;19926;-72
2023/07/31 06:17:27;;;;;;;;;;;;;;;42.11;16.47;96149.38;6127774;29;19929;-73
2023/07/31 06:20:30;;;;;;;;;;;;;;;40.43;17.99;96132.22;6128509;29;19927;-73
2023/07/31 06:23:34;;;;;;;;;;;;;;;41.14;17.60;96132.56;6128455;29;19927;-73
2023/07/31 06:26:38;;;;;;;;;;;;;;;44.12;15.84;96139.91;6128159;29;19927;-73
2023/07/31 06:29:43;;;;;;;;;;;;;;;46.38;14.11;96142.66;6128448;29;19926;-74
2023/07/31 06:32:47;;;;;;;;;;;;;;;47.29;13.78;96143.03;6128309;29;19933;-72
2023/07/31 06:35:49;;;;;;;;;;;;;;;49.21;12.72;96142.59;6128298;29;19966;-73
2023/07/31 06:38:52;;;;;;;;;;;;;;;48.68;13.00;96139.44;6128138;29;20530;-73
2023/07/31 06:41:55;;;;;;;;;;;;;;;48.65;13.54;96142.97;6128108;29;19966;-74
2023/07/31 06:44:58;;;;;;;;;;;;;;;46.56;13.98;96128.13;6127994;29;19927;-74
2023/07/31 06:48:02;;;;;;;;;;;;;;;44.69;15.21;96131.09;6111056;29;19926;-73
2023/07/31 06:51:08;;;;;;;;;;;;;;;42.71;16.64;96121.03;6127308;29;20421;-74
2023/07/31 06:54:12;;;;;;;;;;;;;;;41.28;18.09;96119.53;6127888;29;19933;-73
2023/07/31 06:57:16;;;;;;;;;;;;;;;41.01;17.69;96124.00;6110452;29;20110;-74
2023/07/31 07:00:20;;;;;;;;;;;;;;;39.67;18.75;96125.16;6127751;29;20010;-73
2023/07/31 07:03:23;;;;;;;;;;;;;;;37.61;20.40;96119.28;6127592;29;20294;-73
2023/07/31 07:06:25;;;;;;;;;;;;;;;35.91;22.34;96107.75;6110498;29;19927;-74
2023/07/31 07:09:28;;;;;;;;;;;;;;;35.06;23.55;96109.25;6127289;29;19937;-76
2023/07/31 07:12:32;;;;;;;;;;;;;;;34.30;24.49;96111.84;6127447;29;19927;-74
2023/07/31 07:15:35;;;;;;;;;;;;;;;33.97;25.17;96109.25;6127161;29;19933;-74
2023/07/31 07:18:38;;;;;;;;;;;;;;;33.93;25.84;96107.31;6127220;29;19933;-74
2023/07/31 07:21:42;;;;;;;;;;;;;;;33.23;26.06;96104.72;6110178;29;19926;-74
2023/07/31 07:24:45;;;;;;;;;;;;;;;33.41;25.93;96100.75;6126977;29;20036;-74
2023/07/31 07:27:48;;;;;;;;;;;;;;;33.69;25.36;96115.13;6126687;29;20025;-73
2023/07/31 07:30:55;;;;;;;;;;;;;;;35.28;23.25;96110.91;6110243;29;20347;-74
2023/07/31 07:33:58;;;;;;;;;;;;;;;38.30;20.70;96120.66;6125372;29;19926;-74
2023/07/31 07:37:01;;;;;;;;;;;;;;;39.40;19.13;96125.09;6126357;29;19927;-74
2023/07/31 07:40:03;;;;;;;;;;;;;;;39.87;18.80;96125.91;6126406;29;19934;-73
2023/07/31 07:43:06;;;;;;;;;;;;;;;41.78;17.43;96127.59;6126956;29;19926;-73
2023/07/31 07:46:10;;;;;;;;;;;;;;;41.84;16.81;96126.34;6126583;29;19926;-72
2023/07/31 07:49:13;;;;;;;;;;;;;;;40.43;18.25;96118.44;6126672;29;19927;-72
2023/07/31 07:52:16;;;;;;;;;;;;;;;39.20;19.33;96113.28;6126470;29;20025;-74
2023/07/31 07:55:19;;;;;;;;;;;;;;;39.49;19.18;96115.03;6109715;29;19926;-71
2023/07/31 07:58:23;;;;;;;;;;;;;;;41.05;18.16;96107.66;6126427;29;20017;-73
2023/07/31 08:01:26;;;;;;;;;;;;;;;42.09;17.32;96112.94;6126385;29;20024;-72
2023/07/31 08:04:29;;;;;;;;;;;;;;;41.69;18.09;96108.22;6126653;29;19927;-73
2023/07/31 08:07:33;;;;;;;;;;;;;;;41.09;18.60;96105.09;6125796;29;20005;-73
2023/07/31 08:10:36;;;;;;;;;;;;;;;41.22;18.60;96101.44;6126270;29;19926;-72
2023/07/31 08:13:40;;;;;;;;;;;;;;;41.99;17.60;96116.81;6126012;29;19926;-72
2023/07/31 08:16:43;;;;;;;;;;;;;;;40.31;19.14;96103.25;6125836;29;19926;-71
2023/07/31 08:19:47;;;;;;;;;;;;;;;38.41;20.98;96111.19;6109137;29;20316;-72
2023/07/31 08:22:50;;;;;;;;;;;;;;;37.36;21.32;96104.66;6125715;29;20308;-73
2023/07/31 08:25:53;;;;;;;;;;;;;;;36.38;22.29;96101.00;6125497;29;20404;-72
2023/07/31 08:28:57;;;;;;;;;;;;;;;35.73;23.41;96090.84;6108526;29;20301;-72
2023/07/31 08:32:00;;;;;;;;;;;;;;;35.25;23.93;96095.03;6125545;29;19927;-73
2023/07/31 08:35:04;;;;;;;;;;;;;;;35.23;23.93;96092.56;6125203;29;19927;-72
2023/07/31 08:38:07;;;;;;;;;;;;;;;35.90;23.64;96084.22;6124790;29;19927;-72
2023/07/31 08:41:11;;;;;;;;;;;;;;;37.11;22.19;96085.69;6125045;29;19930;-72
2023/07/31 08:44:15;;;;;;;;;;;;;;;39.45;20.26;96098.31;6125265;29;19927;-72
2023/07/31 08:47:20;;;;;;;;;;;;;;;41.44;18.61;96090.34;6124718;29;20021;-72
2023/07/31 08:50:23;;;;;;;;;;;;;;;40.67;19.55;96082.34;6108428;29;19926;-73
2023/07/31 08:53:26;;;;;;;;;;;;;;;39.70;20.09;96077.72;6124937;29;20399;-72
2023/07/31 08:56:29;;;;;;;;;;;;;;;38.82;20.51;96083.09;6124856;29;19933;-73
2023/07/31 08:59:34;;;;;;;;;;;;;;;37.93;20.94;96075.50;6125048;29;19927;-73
2023/07/31 09:02:45;;;;;;;;;;;;;;;38.27;20.70;96074.53;6124856;29;20021;-73
2023/07/31 09:05:50;;;;;;;;;;;;;;;38.80;20.12;96071.56;6107518;29;20029;-73
2023/07/31 09:08:53;;;;;;;;;;;;;;;41.65;18.11;96073.28;6108149;29;19927;-73
2023/07/31 09:12:00;;;;;;;;;;;;;;;43.41;16.61;96076.75;6124940;29;20397;-72
2023/07/31 09:15:04;;;;;;;;;;;;;;;43.57;16.86;96085.34;6124764;29;19926;-72
2023/07/31 09:18:08;;;;;;;;;;;;;;;42.12;17.44;96070.84;6124723;29;19927;-72
2023/07/31 09:21:11;;;;;;;;;;;;;;;42.06;17.54;96067.41;6124672;29;20366;-73
2023/07/31 09:24:25;;;;;;;;;;;;;;;41.38;18.50;96066.78;6124632;29;19926;-73
2023/07/31 09:27:28;;;;;;;;;;;;;;;40.31;19.18;96059.13;6124506;29;20340;-73
2023/07/31 09:30:43;;;;;;;;;;;;;;;39.32;20.28;96059.75;6107719;29;20025;-72
2023/07/31 09:33:56;;;;;;;;;;;;;;;39.55;19.92;96052.41;6107409;29;19926;-72
2023/07/31 09:37:02;;;;;;;;;;;;;;;41.25;18.59;96048.38;6124450;29;19931;-73
2023/07/31 09:40:05;;;;;;;;;;;;;;;41.88;16.78;96061.00;6124189;29;20021;-74
2023/07/31 09:43:10;;;;;;;;;;;;;;;40.61;17.81;96046.59;6107944;29;19927;-72
2023/07/31 09:46:13;;;;;;;;;;;;;;;42.52;16.91;96048.63;6124080;29;19926;-72
2023/07/31 09:49:17;;;;;;;;;;;;;;;45.86;13.87;96057.91;6124951;29;20316;-73
2023/07/31 09:52:20;;;;;;;;;;;;;;;48.45;12.64;96064.75;6111860;29;19933;-72
2023/07/31 09:55:23;;;;;;;;;;;;;;;48.50;11.81;96072.84;6112383;29;19926;-72
2023/07/31 09:58:28;;;;;;;;;;;;;;;47.65;12.56;96066.81;6128894;29;20308;-73
2023/07/31 10:01:32;;;;;;;;;;;;;;;47.11;12.42;96061.78;6129002;29;20025;-72
2023/07/31 10:04:35;;;;;;;;;;;;;;;45.58;13.18;96055.84;6128921;29;20013;-72
2023/07/31 10:07:41;;;;;;;;;;;;;;;45.78;13.34;96048.56;6129090;29;19926;-73
2023/07/31 10:10:45;;;;;;;;;;;;;;;47.28;12.17;96059.81;6128792;29;20025;-72
2023/07/31 10:13:49;;;;;;;;;;;;;;;47.60;12.04;96046.75;6129095;29;20013;-73
2023/07/31 10:16:52;;;;;;;;;;;;;;;47.58;12.24;96049.91;6128737;29;19978;-72
2023/07/31 10:19:58;;;;;;;;;;;;;;;48.06;12.16;96041.50;6128814;29;19927;-72
2023/07/31 10:23:01;;;;;;;;;;;;;;;49.32;11.74;96037.47;6128303;29;19927;-73
2023/07/31 10:26:06;;;;;;;;;;;;;;;49.87;11.32;96043.59;6111610;29;20043;-73
2023/07/31 10:29:09;;;;;;;;;;;;;;;49.63;11.46;96030.84;6128219;29;19926;-74
2023/07/31 10:32:12;;;;;;;;;;;;;;;49.03;11.51;96022.09;6128526;29;20029;-72
2023/07/31 10:35:15;;;;;;;;;;;;;;;48.11;11.54;96028.09;6111121;29;20001;-72
2023/07/31 10:38:18;;;;;;;;;;;;;;;46.91;12.88;96013.47;6111099;29;20029;-73
2023/07/31 10:41:31;;;;;;;;;;;;;;;45.30;13.74;96007.59;6128148;29;19931;-73
2023/07/31 10:44:34;;;;;;;;;;;;;;;42.23;15.86;96003.06;6128027;29;19927;-72
2023/07/31 10:47:38;;;;;;;;;;;;;;;39.54;17.87;95996.56;6127768;29;20304;-72
2023/07/31 10:50:52;;;;;;;;;;;;;;;38.17;18.90;95975.78;6127857;29;20320;-73
2023/07/31 10:54:10;;;;;;;;;;;;;;;39.71;17.75;95991.22;6127923;29;19933;-74
2023/07/31 10:57:20;;;;;;;;;;;;;;;41.29;16.66;95974.84;6110927;29;19927;-73
2023/07/31 11:00:25;;;;;;;;;;;;;;;42.13;16.11;95972.97;6127557;29;19926;-73
2023/07/31 11:03:42;;;;;;;;;;;;;;;42.48;15.89;95978.53;6127270;29;19927;-73
2023/07/31 11:06:55;;;;;;;;;;;;;;;42.16;15.68;95961.28;6127493;29;19927;-72
2023/07/31 11:09:57;;;;;;;;;;;;;;;41.48;16.48;95953.34;6128049;29;19933;-73
2023/07/31 11:13:04;;;;;;;;;;;;;;;42.19;15.82;95955.09;6127788;29;19927;-73
2023/07/31 11:16:08;;;;;;;;;;;;;;;42.23;16.12;95953.28;6127425;29;19930;-73
2023/07/31 11:19:12;;;;;;;;;;;;;;;41.54;16.46;95942.16;6127331;29;19954;-72
2023/07/31 11:22:16;;;;;;;;;;;;;;;41.18;16.65;95932.09;6127334;29;19927;-73
2023/07/31 11:25:19;;;;;;;;;;;;;;;40.20;17.25;95928.25;6127184;29;19927;-72
2023/07/31 11:28:22;;;;;;;;;;;;;;;39.59;17.74;95919.38;6127500;29;20379;-72
2023/07/31 11:31:25;;;;;;;;;;;;;;;39.28;18.14;95919.97;6127241;29;20015;-72
2023/07/31 11:34:28;;;;;;;;;;;;;;;39.67;17.72;95918.66;6126962;29;20304;-73
2023/07/31 11:37:41;;;;;;;;;;;;;;;39.42;18.05;95921.94;6127198;29;19950;-72
2023/07/31 11:40:44;;;;;;;;;;;;;;;38.27;19.33;95920.66;6126993;29;20029;-73
2023/07/31 11:43:47;;;;;;;;;;;;;;;37.03;19.72;95919.88;6109455;29;20028;-74
2023/07/31 11:46:50;;;;;;;;;;;;;;;37.29;20.37;95906.66;6126411;29;19931;-72
2023/07/31 11:49:53;;;;;;;;;;;;;;;37.59;20.17;95904.66;6126571;29;20334;-72
2023/07/31 11:52:59;;;;;;;;;;;;;;;37.86;19.41;95907.56;6126472;29;20396;-72
2023/07/31 11:56:06;;;;;;;;;;;;;;;37.45;19.77;95919.09;6126306;29;19970;-74
2023/07/31 11:59:09;;;;;;;;;;;;;;;36.73;20.30;95912.75;6126246;29;19973;-75
2023/07/31 12:02:12;;;;;;;;;;;;;;;36.54;20.38;95908.00;6126036;29;20025;-73
2023/07/31 12:05:15;;;;;;;;;;;;;;;36.95;20.68;95910.31;6125727;29;20017;-73
2023/07/31 12:08:20;;;;;;;;;;;;;;;36.23;21.36;95906.59;6125972;29;19926;-72
2023/07/31 12:11:23;;;;;;;;;;;;;;;35.49;21.69;95904.56;6125993;29;20025;-74
2023/07/31 12:14:30;;;;;;;;;;;;;;;35.07;22.31;95896.81;6124799;29;19931;-74
2023/07/31 12:17:34;;;;;;;;;;;;;;;35.04;22.16;95906.38;6125578;29;19926;-73
2023/07/31 12:20:47;;;;;;;;;;;;;;;35.21;22.42;95899.78;6125583;29;20389;-73
2023/07/31 12:23:53;;;;;;;;;;;;;;;35.01;22.33;95892.44;6125720;29;19926;-72
2023/07/31 12:26:56;;;;;;;;;;;;;;;34.45;23.30;95884.34;6125518;29;19926;-73
2023/07/31 12:30:00;;;;;;;;;;;;;;;34.08;23.29;95885.47;6125474;29;20024;-76
2023/07/31 12:33:04;;;;;;;;;;;;;;;33.96;23.40;95888.44;6107984;29;20420;-73
2023/07/31 12:36:12;;;;;;;;;;;;;;;34.07;23.16;95881.94;6124874;29;20457;-73
2023/07/31 12:39:16;;;;;;;;;;;;;;;34.23;23.54;95877.28;6125220;29;19926;-74
2023/07/31 12:42:19;;;;;;;;;;;;;;;34.21;23.40;95868.56;6107921;29;19927;-73
2023/07/31 12:45:23;;;;;;;;;;;;;;;34.11;23.72;95872.13;6107636;29;20025;-73
2023/07/31 12:48:25;;;;;;;;;;;;;;;33.74;23.96;95870.44;6107465;29;19934;-72
2023/07/31 12:51:29;;;;;;;;;;;;;;;33.39;24.20;95857.50;6124676;29;19927;-73
2023/07/31 12:54:35;;;;;;;;;;;;;;;33.03;24.62;95843.75;6124437;29;20017;-73
2023/07/31 12:57:37;;;;;;;;;;;;;;;32.79;25.07;95845.28;6108180;29;19927;-74
2023/07/31 13:00:40;;;;;;;;;;;;;;;32.62;24.79;95849.00;6124938;29;20476;-73
2023/07/31 13:03:47;;;;;;;;;;;;;;;32.47;25.09;95834.47;6093193;29;19927;-73
2023/07/31 13:06:50;;;;;;;;;;;;;;;32.18;25.24;95846.50;6107789;29;20318;-72
2023/07/31 13:09:53;;;;;;;;;;;;;;;31.86;25.85;95846.50;6107500;29;20320;-72
2023/07/31 13:12:57;;;;;;;;;;;;;;;31.62;26.04;95839.75;6124680;29;20456;-71
2023/07/31 13:16:01;;;;;;;;;;;;;;;31.50;25.85;95853.53;6107321;29;20046;-72
2023/07/31 13:19:05;;;;;;;;;;;;;;;31.35;26.28;95853.34;6124538;29;19922;-73
2023/07/31 13:22:08;;;;;;;;;;;;;;;31.20;27.02;95843.97;6107146;29;19927;-71
2023/07/31 13:25:12;;;;;;;;;;;;;;;31.12;27.46;95844.41;6124224;29;19930;-72
2023/07/31 13:28:16;;;;;;;;;;;;;;;30.77;27.96;95840.16;6124309;29;20025;-71
2023/07/31 13:31:19;;;;;;;;;;;;;;;30.65;27.57;95842.16;6123734;29;20426;-73
2023/07/31 13:34:22;;;;;;;;;;;;;;;30.68;28.52;95852.50;6124112;29;19927;-72
2023/07/31 13:37:25;;;;;;;;;;;;;;;30.13;30.49;95861.47;6107290;29;20376;-72
2023/07/31 13:40:29;;;;;;;;;;;;;;;29.49;32.93;95895.06;6107024;29;20021;-72
2023/07/31 13:43:32;;;;;;;;;;;;;;;28.93;33.80;95948.13;6123803;29;20447;-72
2023/07/31 13:46:35;;;;;;;;;;;;;;;28.56;35.93;95956.50;6106410;29;20324;-72
2023/07/31 13:49:38;;;;;;;;;;;;;;;27.79;38.17;95939.38;6123910;29;20308;-72
2023/07/31 13:52:42;;;;;;;;;;;;;;;27.11;40.75;95941.28;6107074;29;20029;-72
2023/07/31 13:55:46;;;;;;;;;;;;;;;26.09;41.85;95938.94;6124214;29;20009;-71
2023/07/31 13:58:49;;;;;;;;;;;;;;;25.52;44.22;95928.09;6124192;29;19934;-72
2023/07/31 14:01:52;;;;;;;;;;;;;;;24.49;46.80;95946.06;6124465;29;19930;-70
2023/07/31 14:04:56;;;;;;;;;;;;;;;23.20;53.87;95972.06;6125094;29;19926;-72
2023/07/31 14:07:59;;;;;;;;;;;;;;;22.12;58.32;95992.19;6124034;29;19933;-73
2023/07/31 14:11:02;;;;;;;;;;;;;;;21.38;60.93;95989.78;6124314;29;19926;-72
2023/07/31 14:14:05;;;;;;;;;;;;;;;21.06;63.91;95987.34;6124041;29;20044;-71
2023/07/31 14:17:08;;;;;;;;;;;;;;;20.78;65.32;96011.22;6124030;29;19927;-69
2023/07/31 14:20:11;;;;;;;;;;;;;;;20.75;67.01;96033.00;6107169;29;19934;-70
2023/07/31 14:23:15;;;;;;;;;;;;;;;20.32;65.94;96082.63;6123931;29;20013;-70
2023/07/31 14:26:18;;;;;;;;;;;;;;;20.24;66.78;96109.38;6124151;29;20021;-70
2023/07/31 14:29:23;;;;;;;;;;;;;;;20.25;66.37;96103.06;6123802;29;19933;-69
2023/07/31 14:32:26;;;;;;;;;;;;;;;20.35;67.89;96076.91;6106789;29;19927;-70
2023/07/31 14:35:30;;;;;;;;;;;;;;;20.11;68.03;96060.06;6123375;29;19930;-70
2023/07/31 14:38:33;;;;;;;;;;;;;;;20.12;68.11;96048.38;6110145;29;20017;-70
2023/07/31 14:41:36;;;;;;;;;;;;;;;20.31;67.23;96062.25;6127732;29;19927;-70
2023/07/31 14:44:40;;;;;;;;;;;;;;;20.45;65.95;96074.84;6110733;29;20098;-71
2023/07/31 14:47:44;;;;;;;;;;;;;;;20.46;66.24;96084.50;6128926;29;19927;-71
2023/07/31 14:50:46;;;;;;;;;;;;;;;20.50;66.09;96088.50;6110733;29;19926;-71
2023/07/31 14:53:50;;;;;;;;;;;;;;;20.65;67.96;96075.19;6110528;29;20406;-71
2023/07/31 14:56:56;;;;;;;;;;;;;;;20.44;68.84;96065.16;6127860;29;19933;-71
2023/07/31 14:59:59;;;;;;;;;;;;;;;20.29;68.87;96064.28;6111015;29;20630;-72
2023/07/31 15:03:02;;;;;;;;;;;;;;;20.32;69.46;96066.59;6127568;29;19933;-70
2023/07/31 15:06:07;;;;;;;;;;;;;;;20.48;68.11;96058.44;6094973;29;19926;-71
2023/07/31 15:09:11;;;;;;;;;;;;;;;20.63;67.81;96067.31;6127463;29;19926;-69
2023/07/31 15:12:14;;;;;;;;;;;;;;;20.70;68.67;96071.97;6110512;29;19927;-71
2023/07/31 15:15:17;;;;;;;;;;;;;;;20.77;68.39;96088.94;6110380;29;20021;-71
2023/07/31 15:18:20;;;;;;;;;;;;;;;20.82;68.63;96083.88;6127416;29;19931;-70
2023/07/31 15:21:24;;;;;;;;;;;;;;;20.89;69.14;96087.50;6094556;29;19927;-70
2023/07/31 15:24:27;;;;;;;;;;;;;;;20.99;69.76;96074.66;6109865;29;20047;-70
2023/07/31 15:27:30;;;;;;;;;;;;;;;21.11;68.91;96074.19;6094347;29;19926;-71
2023/07/31 15:30:32;;;;;;;;;;;;;;;21.19;69.94;96066.09;6109941;29;20029;-69
2023/07/31 15:33:36;;;;;;;;;;;;;;;21.29;70.46;96054.09;6126857;29;19926;-71
2023/07/31 15:36:38;;;;;;;;;;;;;;;21.46;70.51;96041.38;6109768;29;19926;-70
2023/07/31 15:39:41;;;;;;;;;;;;;;;21.47;69.49;96059.06;6110072;29;19961;-69
2023/07/31 15:42:45;;;;;;;;;;;;;;;21.39;70.56;96061.84;6109417;29;19929;-71
2023/07/31 15:45:48;;;;;;;;;;;;;;;21.40;71.29;96058.19;6126522;29;19927;-70
2023/07/31 15:48:53;;;;;;;;;;;;;;;21.33;71.51;96062.56;6109930;29;19926;-70
2023/07/31 15:52:01;;;;;;;;;;;;;;;21.33;71.23;96065.25;6126269;29;19927;-71
2023/07/31 15:55:05;;;;;;;;;;;;;;;21.30;72.39;96065.63;6126533;29;19926;-71
2023/07/31 15:58:09;;;;;;;;;;;;;;;21.35;71.54;96065.91;6109330;29;19927;-71
2023/07/31 16:01:11;;;;;;;;;;;;;;;21.35;71.46;96055.19;6126411;29;19933;-71